sensor_id;sensor_type;location;lat;lon;timestamp;pressure;altitude;pressure_sealevel;temperature;humidity
16120;BME280;12670;53.502;10.252;2022-07-10T00:00:50;101822.75;;;15.59;86.62
16120;BME280;12670;53.502;10.252;2022-07-10T00:03:54;101815.78;;;15.76;86.71
16120;BME280;12670;53.502;10.252;2022-07-10T00:06:56;101813.22;;;15.54;85.74
16120;BME280;12670;53.502;10.252;2022-07-10T00:09:59;101804.97;;;15.58;86.18
16120;BME280;12670;53.502;10.252;2022-07-10T00:13:02;101806.63;;;15.42;86.35
16120;BME280;12670;53.502;10.252;2022-07-10T00:16:05;101809.81;;;15.50;86.17
16120;BME280;12670;53.502;10.252;2022-07-10T00:19:09;101819.28;;;15.57;86.41
16120;BME280;12670;53.502;10.252;2022-07-10T00:22:11;101819.91;;;15.64;86.85
16120;BME280;12670;53.502;10.252;2022-07-10T00:25:14;101816.16;;;15.68;87.24
16120;BME280;12670;53.502;10.252;2022-07-10T00:28:17;101812.31;;;15.53;87.86
16120;BME280;12670;53.502;10.252;2022-07-10T00:31:19;101812.47;;;15.70;87.44
16120;BME280;12670;53.502;10.252;2022-07-10T00:34:23;101806.69;;;15.59;87.99
16120;BME280;12670;53.502;10.252;2022-07-10T00:37:26;101799.81;;;15.74;88.12
16120;BME280;12670;53.502;10.252;2022-07-10T00:40:29;101801.56;;;15.75;87.26
16120;BME280;12670;53.502;10.252;2022-07-10T00:43:51;101803.16;;;15.79;87.54
16120;BME280;12670;53.502;10.252;2022-07-10T00:46:53;101807.84;;;15.74;88.36
16120;BME280;12670;53.502;10.252;2022-07-10T00:49:57;101798.81;;;15.77;87.79
16120;BME280;12670;53.502;10.252;2022-07-10T00:53:00;101803.44;;;15.53;87.63
16120;BME280;12670;53.502;10.252;2022-07-10T00:56:04;101798.53;;;15.43;89.31
16120;BME280;12670;53.502;10.252;2022-07-10T00:59:09;101797.88;;;15.57;88.77
16120;BME280;12670;53.502;10.252;2022-07-10T01:02:12;101794.34;;;14.97;91.06
16120;BME280;12670;53.502;10.252;2022-07-10T01:05:17;101787.69;;;15.07;90.22
16120;BME280;12670;53.502;10.252;2022-07-10T01:08:19;101789.38;;;15.29;90.34
16120;BME280;12670;53.502;10.252;2022-07-10T01:11:22;101790.13;;;15.32;89.95
16120;BME280;12670;53.502;10.252;2022-07-10T01:14:25;101783.28;;;15.45;89.49
16120;BME280;12670;53.502;10.252;2022-07-10T01:17:29;101791.38;;;15.44;88.71
16120;BME280;12670;53.502;10.252;2022-07-10T01:20:33;101791.50;;;15.41;88.99
16120;BME280;12670;53.502;10.252;2022-07-10T01:23:37;101786.88;;;15.44;89.01
16120;BME280;12670;53.502;10.252;2022-07-10T01:26:40;101784.50;;;15.57;88.78
16120;BME280;12670;53.502;10.252;2022-07-10T01:29:44;101780.72;;;15.63;88.64
16120;BME280;12670;53.502;10.252;2022-07-10T01:32:48;101781.13;;;15.54;88.90
16120;BME280;12670;53.502;10.252;2022-07-10T01:35:51;101767.16;;;15.47;89.20
16120;BME280;12670;53.502;10.252;2022-07-10T01:38:55;101771.03;;;15.40;88.60
16120;BME280;12670;53.502;10.252;2022-07-10T01:41:59;101769.19;;;15.42;88.48
16120;BME280;12670;53.502;10.252;2022-07-10T01:45:01;101763.19;;;15.37;88.97
16120;BME280;12670;53.502;10.252;2022-07-10T01:48:07;101764.75;;;15.41;88.97
16120;BME280;12670;53.502;10.252;2022-07-10T01:51:11;101762.34;;;15.35;89.50
16120;BME280;12670;53.502;10.252;2022-07-10T01:54:15;101759.47;;;15.39;88.78
16120;BME280;12670;53.502;10.252;2022-07-10T01:57:17;101745.75;;;15.47;89.05
16120;BME280;12670;53.502;10.252;2022-07-10T02:00:20;101747.50;;;15.48;87.91
16120;BME280;12670;53.502;10.252;2022-07-10T02:03:23;101760.88;;;15.48;88.12
16120;BME280;12670;53.502;10.252;2022-07-10T02:06:42;101760.53;;;15.56;87.51
16120;BME280;12670;53.502;10.252;2022-07-10T02:09:47;101756.16;;;15.53;88.50
16120;BME280;12670;53.502;10.252;2022-07-10T02:12:49;101750.81;;;15.53;88.51
16120;BME280;12670;53.502;10.252;2022-07-10T02:15:52;101760.72;;;15.51;88.92
16120;BME280;12670;53.502;10.252;2022-07-10T02:18:55;101753.94;;;15.44;89.60
16120;BME280;12670;53.502;10.252;2022-07-10T02:21:58;101740.75;;;15.39;90.51
16120;BME280;12670;53.502;10.252;2022-07-10T02:25:02;101743.22;;;15.44;90.85
16120;BME280;12670;53.502;10.252;2022-07-10T02:28:05;101754.34;;;15.35;91.67
16120;BME280;12670;53.502;10.252;2022-07-10T02:31:07;101747.13;;;15.37;91.80
16120;BME280;12670;53.502;10.252;2022-07-10T02:34:11;101750.47;;;15.42;91.95
16120;BME280;12670;53.502;10.252;2022-07-10T02:37:14;101739.50;;;15.48;91.66
16120;BME280;12670;53.502;10.252;2022-07-10T02:40:18;101748.59;;;15.44;91.42
16120;BME280;12670;53.502;10.252;2022-07-10T02:43:21;101750.47;;;15.42;91.21
16120;BME280;12670;53.502;10.252;2022-07-10T02:46:23;101748.88;;;15.38;91.65
16120;BME280;12670;53.502;10.252;2022-07-10T02:49:26;101745.63;;;15.50;91.22
16120;BME280;12670;53.502;10.252;2022-07-10T02:52:28;101742.19;;;15.28;90.90
16120;BME280;12670;53.502;10.252;2022-07-10T02:55:33;101743.03;;;15.49;90.29
16120;BME280;12670;53.502;10.252;2022-07-10T02:58:37;101742.34;;;15.25;90.67
16120;BME280;12670;53.502;10.252;2022-07-10T03:01:41;101745.63;;;15.50;90.41
16120;BME280;12670;53.502;10.252;2022-07-10T03:04:44;101740.56;;;15.44;89.32
16120;BME280;12670;53.502;10.252;2022-07-10T03:07:46;101733.88;;;15.34;89.20
16120;BME280;12670;53.502;10.252;2022-07-10T03:10:51;101744.03;;;15.46;89.55
16120;BME280;12670;53.502;10.252;2022-07-10T03:13:54;101747.13;;;15.37;89.20
16120;BME280;12670;53.502;10.252;2022-07-10T03:16:56;101748.88;;;15.38;88.80
16120;BME280;12670;53.502;10.252;2022-07-10T03:19:59;101744.06;;;15.26;89.32
16120;BME280;12670;53.502;10.252;2022-07-10T03:23:02;101754.06;;;15.41;88.87
16120;BME280;12670;53.502;10.252;2022-07-10T03:26:06;101744.13;;;15.24;88.48
16120;BME280;12670;53.502;10.252;2022-07-10T03:29:09;101731.09;;;15.37;88.16
16120;BME280;12670;53.502;10.252;2022-07-10T03:32:11;101735.59;;;15.55;88.53
16120;BME280;12670;53.502;10.252;2022-07-10T03:35:14;101731.81;;;15.40;87.39
16120;BME280;12670;53.502;10.252;2022-07-10T03:38:17;101733.31;;;15.27;87.51
16120;BME280;12670;53.502;10.252;2022-07-10T03:41:21;101742.38;;;15.43;87.34
16120;BME280;12670;53.502;10.252;2022-07-10T03:44:23;101737.31;;;15.37;88.57
16120;BME280;12670;53.502;10.252;2022-07-10T03:47:26;101742.75;;;15.55;88.16
16120;BME280;12670;53.502;10.252;2022-07-10T03:50:29;101745.53;;;15.33;87.99
16120;BME280;12670;53.502;10.252;2022-07-10T03:53:31;101746.84;;;15.43;87.26
16120;BME280;12670;53.502;10.252;2022-07-10T03:56:35;101745.34;;;15.17;88.93
16120;BME280;12670;53.502;10.252;2022-07-10T03:59:55;101738.66;;;15.46;87.75
16120;BME280;12670;53.502;10.252;2022-07-10T04:03:00;101732.94;;;15.35;87.32
16120;BME280;12670;53.502;10.252;2022-07-10T04:06:03;101737.16;;;15.40;86.81
16120;BME280;12670;53.502;10.252;2022-07-10T04:09:06;101732.47;;;15.45;88.35
16120;BME280;12670;53.502;10.252;2022-07-10T04:12:10;101726.72;;;15.34;88.37
16120;BME280;12670;53.502;10.252;2022-07-10T04:15:12;101729.94;;;15.42;87.71
16120;BME280;12670;53.502;10.252;2022-07-10T04:18:15;101719.47;;;15.17;86.85
16120;BME280;12670;53.502;10.252;2022-07-10T04:21:17;101729.69;;;15.47;87.04
16120;BME280;12670;53.502;10.252;2022-07-10T04:24:20;101729.66;;;15.49;85.95
16120;BME280;12670;53.502;10.252;2022-07-10T04:27:24;101718.09;;;15.48;86.13
16120;BME280;12670;53.502;10.252;2022-07-10T04:30:27;101719.25;;;15.42;86.17
16120;BME280;12670;53.502;10.252;2022-07-10T04:33:29;101717.72;;;15.37;85.27
16120;BME280;12670;53.502;10.252;2022-07-10T04:36:32;101718.22;;;15.45;84.58
16120;BME280;12670;53.502;10.252;2022-07-10T04:39:35;101718.66;;;15.55;85.19
16120;BME280;12670;53.502;10.252;2022-07-10T04:42:40;101717.19;;;15.29;86.15
16120;BME280;12670;53.502;10.252;2022-07-10T04:45:42;101714.59;;;15.46;84.47
16120;BME280;12670;53.502;10.252;2022-07-10T04:48:46;101714.53;;;15.47;84.38
16120;BME280;12670;53.502;10.252;2022-07-10T04:51:49;101728.91;;;15.45;85.66
16120;BME280;12670;53.502;10.252;2022-07-10T04:54:51;101736.13;;;15.63;83.88
16120;BME280;12670;53.502;10.252;2022-07-10T04:57:55;101733.31;;;15.66;83.03
16120;BME280;12670;53.502;10.252;2022-07-10T05:00:58;101736.38;;;15.57;82.65
16120;BME280;12670;53.502;10.252;2022-07-10T05:04:01;101734.75;;;15.73;82.63
16120;BME280;12670;53.502;10.252;2022-07-10T05:07:04;101732.72;;;15.79;81.98
16120;BME280;12670;53.502;10.252;2022-07-10T05:10:07;101733.72;;;15.76;81.86
16120;BME280;12670;53.502;10.252;2022-07-10T05:13:11;101739.50;;;15.86;82.47
16120;BME280;12670;53.502;10.252;2022-07-10T05:16:14;101736.06;;;15.84;81.78
16120;BME280;12670;53.502;10.252;2022-07-10T05:19:21;101731.97;;;15.94;81.89
16120;BME280;12670;53.502;10.252;2022-07-10T05:22:24;101742.81;;;16.10;80.96
16120;BME280;12670;53.502;10.252;2022-07-10T05:25:27;101744.34;;;15.96;80.59
16120;BME280;12670;53.502;10.252;2022-07-10T05:28:33;101742.28;;;15.65;81.03
16120;BME280;12670;53.502;10.252;2022-07-10T05:31:36;101749.94;;;15.53;81.19
16120;BME280;12670;53.502;10.252;2022-07-10T05:34:39;101739.78;;;15.61;80.67
16120;BME280;12670;53.502;10.252;2022-07-10T05:37:41;101744.47;;;15.56;80.75
16120;BME280;12670;53.502;10.252;2022-07-10T05:40:44;101745.56;;;15.70;79.96
16120;BME280;12670;53.502;10.252;2022-07-10T05:43:48;101744.66;;;15.71;80.16
16120;BME280;12670;53.502;10.252;2022-07-10T05:46:51;101739.06;;;15.95;80.83
16120;BME280;12670;53.502;10.252;2022-07-10T05:49:53;101738.63;;;16.04;79.67
16120;BME280;12670;53.502;10.252;2022-07-10T05:52:56;101740.22;;;16.08;78.65
16120;BME280;12670;53.502;10.252;2022-07-10T05:55:59;101738.81;;;16.18;77.92
16120;BME280;12670;53.502;10.252;2022-07-10T05:59:03;101732.91;;;16.29;78.26
16120;BME280;12670;53.502;10.252;2022-07-10T06:02:06;101736.72;;;16.06;77.86
16120;BME280;12670;53.502;10.252;2022-07-10T06:05:09;101737.47;;;15.91;76.92
16120;BME280;12670;53.502;10.252;2022-07-10T06:08:12;101756.22;;;15.91;78.62
16120;BME280;12670;53.502;10.252;2022-07-10T06:11:14;101749.13;;;15.90;77.36
16120;BME280;12670;53.502;10.252;2022-07-10T06:14:18;101750.63;;;15.77;78.09
16120;BME280;12670;53.502;10.252;2022-07-10T06:17:21;101749.34;;;15.85;77.02
16120;BME280;12670;53.502;10.252;2022-07-10T06:20:24;101751.16;;;15.85;77.72
16120;BME280;12670;53.502;10.252;2022-07-10T06:23:27;101744.41;;;16.14;76.68
16120;BME280;12670;53.502;10.252;2022-07-10T06:26:30;101761.47;;;16.11;76.07
16120;BME280;12670;53.502;10.252;2022-07-10T06:29:34;101751.41;;;16.16;76.15
16120;BME280;12670;53.502;10.252;2022-07-10T06:32:38;101762.31;;;16.31;75.74
16120;BME280;12670;53.502;10.252;2022-07-10T06:35:41;101757.44;;;16.56;75.42
16120;BME280;12670;53.502;10.252;2022-07-10T06:38:44;101761.47;;;16.65;75.66
16120;BME280;12670;53.502;10.252;2022-07-10T06:41:47;101751.69;;;16.46;74.24
16120;BME280;12670;53.502;10.252;2022-07-10T06:44:51;101753.38;;;16.66;74.41
16120;BME280;12670;53.502;10.252;2022-07-10T06:47:54;101753.19;;;16.69;75.01
16120;BME280;12670;53.502;10.252;2022-07-10T06:51:00;101747.34;;;16.44;74.13
16120;BME280;12670;53.502;10.252;2022-07-10T06:54:03;101752.84;;;16.41;73.90
16120;BME280;12670;53.502;10.252;2022-07-10T06:57:06;101759.69;;;16.65;73.40
16120;BME280;12670;53.502;10.252;2022-07-10T07:00:10;101752.91;;;16.75;71.48
16120;BME280;12670;53.502;10.252;2022-07-10T07:03:13;101751.94;;;16.94;71.34
16120;BME280;12670;53.502;10.252;2022-07-10T07:06:16;101746.84;;;17.07;67.38
16120;BME280;12670;53.502;10.252;2022-07-10T07:09:19;101746.53;;;17.28;68.37
16120;BME280;12670;53.502;10.252;2022-07-10T07:12:21;101739.81;;;17.04;66.29
16120;BME280;12670;53.502;10.252;2022-07-10T07:15:25;101741.09;;;16.97;66.87
16120;BME280;12670;53.502;10.252;2022-07-10T07:18:28;101744.03;;;17.25;66.77
16120;BME280;12670;53.502;10.252;2022-07-10T07:21:34;101738.09;;;17.52;67.09
16120;BME280;12670;53.502;10.252;2022-07-10T07:24:54;101741.16;;;17.13;65.29
16120;BME280;12670;53.502;10.252;2022-07-10T07:27:57;101736.44;;;17.33;65.83
16120;BME280;12670;53.502;10.252;2022-07-10T07:31:01;101737.13;;;17.04;65.85
16120;BME280;12670;53.502;10.252;2022-07-10T07:34:03;101733.84;;;17.32;65.51
16120;BME280;12670;53.502;10.252;2022-07-10T07:37:06;101730.28;;;17.31;63.65
16120;BME280;12670;53.502;10.252;2022-07-10T07:40:10;101736.81;;;17.43;66.15
16120;BME280;12670;53.502;10.252;2022-07-10T07:43:13;101729.38;;;17.64;65.58
16120;BME280;12670;53.502;10.252;2022-07-10T07:46:17;101735.03;;;17.26;64.24
16120;BME280;12670;53.502;10.252;2022-07-10T07:49:21;101739.13;;;17.33;64.31
16120;BME280;12670;53.502;10.252;2022-07-10T07:52:24;101735.47;;;17.35;63.38
16120;BME280;12670;53.502;10.252;2022-07-10T07:55:27;101741.03;;;17.31;62.41
16120;BME280;12670;53.502;10.252;2022-07-10T07:58:30;101742.78;;;17.64;61.90
16120;BME280;12670;53.502;10.252;2022-07-10T08:01:34;101731.75;;;18.18;62.08
16120;BME280;12670;53.502;10.252;2022-07-10T08:04:36;101737.66;;;18.08;60.48
16120;BME280;12670;53.502;10.252;2022-07-10T08:07:40;101735.38;;;18.17;62.68
16120;BME280;12670;53.502;10.252;2022-07-10T08:10:43;101749.59;;;17.87;60.88
16120;BME280;12670;53.502;10.252;2022-07-10T08:13:46;101738.75;;;18.20;60.49
16120;BME280;12670;53.502;10.252;2022-07-10T08:16:50;101739.97;;;18.76;58.29
16120;BME280;12670;53.502;10.252;2022-07-10T08:19:53;101732.88;;;19.04;58.03
16120;BME280;12670;53.502;10.252;2022-07-10T08:22:55;101727.50;;;19.04;59.66
16120;BME280;12670;53.502;10.252;2022-07-10T08:26:01;101730.94;;;18.77;58.99
16120;BME280;12670;53.502;10.252;2022-07-10T08:29:03;101727.66;;;18.86;58.76
16120;BME280;12670;53.502;10.252;2022-07-10T08:32:07;101731.53;;;18.97;57.04
16120;BME280;12670;53.502;10.252;2022-07-10T08:35:10;101724.44;;;18.96;56.32
16120;BME280;12670;53.502;10.252;2022-07-10T08:38:14;101721.34;;;19.16;55.35
16120;BME280;12670;53.502;10.252;2022-07-10T08:41:17;101720.22;;;19.63;55.23
16120;BME280;12670;53.502;10.252;2022-07-10T08:44:25;101727.69;;;19.58;53.22
16120;BME280;12670;53.502;10.252;2022-07-10T08:47:29;101723.38;;;19.55;53.78
16120;BME280;12670;53.502;10.252;2022-07-10T08:50:43;101720.78;;;19.54;55.46
16120;BME280;12670;53.502;10.252;2022-07-10T08:53:47;101723.00;;;19.61;54.83
16120;BME280;12670;53.502;10.252;2022-07-10T08:56:52;101718.69;;;19.30;53.51
16120;BME280;12670;53.502;10.252;2022-07-10T08:59:56;101721.00;;;19.65;55.57
16120;BME280;12670;53.502;10.252;2022-07-10T09:03:00;101709.41;;;20.18;55.45
16120;BME280;12670;53.502;10.252;2022-07-10T09:06:04;101725.66;;;20.17;53.69
16120;BME280;12670;53.502;10.252;2022-07-10T09:09:07;101709.59;;;19.88;51.92
16120;BME280;12670;53.502;10.252;2022-07-10T09:12:12;101712.47;;;19.58;52.14
16120;BME280;12670;53.502;10.252;2022-07-10T09:15:15;101716.66;;;19.48;52.76
16120;BME280;12670;53.502;10.252;2022-07-10T09:18:23;101718.25;;;19.79;54.71
16120;BME280;12670;53.502;10.252;2022-07-10T09:21:32;101727.03;;;20.37;52.65
16120;BME280;12670;53.502;10.252;2022-07-10T09:24:36;101704.19;;;20.82;50.88
16120;BME280;12670;53.502;10.252;2022-07-10T09:27:51;101717.22;;;21.14;49.05
16120;BME280;12670;53.502;10.252;2022-07-10T09:30:56;101714.94;;;21.46;48.52
16120;BME280;12670;53.502;10.252;2022-07-10T09:34:00;101705.03;;;21.83;47.49
16120;BME280;12670;53.502;10.252;2022-07-10T09:37:23;101713.47;;;21.78;48.57
16120;BME280;12670;53.502;10.252;2022-07-10T09:40:27;101716.59;;;21.23;47.49
16120;BME280;12670;53.502;10.252;2022-07-10T09:43:43;101726.50;;;20.71;47.46
16120;BME280;12670;53.502;10.252;2022-07-10T09:46:47;101728.06;;;20.34;48.18
16120;BME280;12670;53.502;10.252;2022-07-10T09:49:51;101713.13;;;20.95;47.18
16120;BME280;12670;53.502;10.252;2022-07-10T09:52:55;101714.19;;;20.93;48.77
16120;BME280;12670;53.502;10.252;2022-07-10T09:56:00;101737.84;;;19.95;48.97
16120;BME280;12670;53.502;10.252;2022-07-10T09:59:06;101730.28;;;20.15;50.63
16120;BME280;12670;53.502;10.252;2022-07-10T10:02:11;101711.41;;;20.94;49.93
16120;BME280;12670;53.502;10.252;2022-07-10T10:05:16;101712.38;;;21.44;48.40
16120;BME280;12670;53.502;10.252;2022-07-10T10:08:22;101722.63;;;21.14;48.29
16120;BME280;12670;53.502;10.252;2022-07-10T10:11:27;101719.75;;;21.29;47.77
16120;BME280;12670;53.502;10.252;2022-07-10T10:14:33;101720.88;;;21.64;45.88
16120;BME280;12670;53.502;10.252;2022-07-10T10:17:38;101719.25;;;21.61;44.68
16120;BME280;12670;53.502;10.252;2022-07-10T10:20:44;101719.50;;;21.58;45.74
16120;BME280;12670;53.502;10.252;2022-07-10T10:23:47;101721.75;;;21.39;46.39
16120;BME280;12670;53.502;10.252;2022-07-10T10:26:50;101715.13;;;21.68;43.59
16120;BME280;12670;53.502;10.252;2022-07-10T10:29:53;101718.78;;;22.04;44.87
16120;BME280;12670;53.502;10.252;2022-07-10T10:32:56;101704.78;;;22.23;44.01
16120;BME280;12670;53.502;10.252;2022-07-10T10:36:01;101705.84;;;21.96;43.97
16120;BME280;12670;53.502;10.252;2022-07-10T10:39:09;101717.34;;;21.25;45.84
16120;BME280;12670;53.502;10.252;2022-07-10T10:42:32;101720.47;;;21.19;45.27
16120;BME280;12670;53.502;10.252;2022-07-10T10:45:35;101719.22;;;21.98;46.27
16120;BME280;12670;53.502;10.252;2022-07-10T10:49:03;101720.25;;;22.21;44.81
16120;BME280;12670;53.502;10.252;2022-07-10T10:52:09;101707.50;;;21.49;43.72
16120;BME280;12670;53.502;10.252;2022-07-10T10:55:16;101709.19;;;22.00;43.74
16120;BME280;12670;53.502;10.252;2022-07-10T10:58:20;101702.88;;;21.88;42.82
16120;BME280;12670;53.502;10.252;2022-07-10T11:01:27;101707.56;;;22.45;40.72
16120;BME280;12670;53.502;10.252;2022-07-10T11:04:30;101707.00;;;23.44;40.37
16120;BME280;12670;53.502;10.252;2022-07-10T11:07:52;101704.69;;;22.59;39.61
16120;BME280;12670;53.502;10.252;2022-07-10T11:10:55;101713.22;;;21.94;41.74
16120;BME280;12670;53.502;10.252;2022-07-10T11:14:03;101710.31;;;22.56;38.45
16120;BME280;12670;53.502;10.252;2022-07-10T11:17:06;101715.63;;;23.27;40.57
16120;BME280;12670;53.502;10.252;2022-07-10T11:20:10;101720.81;;;23.41;39.97
16120;BME280;12670;53.502;10.252;2022-07-10T11:23:30;101715.88;;;23.01;39.79
16120;BME280;12670;53.502;10.252;2022-07-10T11:26:49;101699.59;;;23.91;42.01
16120;BME280;12670;53.502;10.252;2022-07-10T11:29:58;101711.69;;;23.53;39.83
16120;BME280;12670;53.502;10.252;2022-07-10T11:33:04;101716.91;;;22.76;41.24
16120;BME280;12670;53.502;10.252;2022-07-10T11:36:10;101710.31;;;22.92;40.08
16120;BME280;12670;53.502;10.252;2022-07-10T11:39:16;101710.72;;;22.74;40.23
16120;BME280;12670;53.502;10.252;2022-07-10T11:42:19;101704.19;;;23.01;40.66
16120;BME280;12670;53.502;10.252;2022-07-10T11:45:31;101703.44;;;23.32;39.95
16120;BME280;12670;53.502;10.252;2022-07-10T11:48:38;101708.53;;;22.79;40.66
16120;BME280;12670;53.502;10.252;2022-07-10T11:51:42;101705.38;;;22.02;40.28
16120;BME280;12670;53.502;10.252;2022-07-10T11:54:47;101702.28;;;21.96;41.76
16120;BME280;12670;53.502;10.252;2022-07-10T11:57:50;101709.91;;;22.15;42.16
16120;BME280;12670;53.502;10.252;2022-07-10T12:00:58;101711.72;;;21.90;43.44
16120;BME280;12670;53.502;10.252;2022-07-10T12:04:04;101713.19;;;21.70;45.07
16120;BME280;12670;53.502;10.252;2022-07-10T12:07:08;101713.78;;;21.37;44.27
16120;BME280;12670;53.502;10.252;2022-07-10T12:10:12;101709.34;;;20.98;45.13
16120;BME280;12670;53.502;10.252;2022-07-10T12:13:15;101718.75;;;21.31;45.93
16120;BME280;12670;53.502;10.252;2022-07-10T12:16:18;101715.78;;;21.96;44.21
16120;BME280;12670;53.502;10.252;2022-07-10T12:19:22;101730.53;;;21.42;45.22
16120;BME280;12670;53.502;10.252;2022-07-10T12:22:26;101720.03;;;20.99;44.25
16120;BME280;12670;53.502;10.252;2022-07-10T12:25:30;101709.16;;;21.01;45.79
16120;BME280;12670;53.502;10.252;2022-07-10T12:28:47;101720.13;;;21.11;46.49
16120;BME280;12670;53.502;10.252;2022-07-10T12:31:52;101727.75;;;21.68;44.75
16120;BME280;12670;53.502;10.252;2022-07-10T12:34:58;101726.00;;;22.16;42.70
16120;BME280;12670;53.502;10.252;2022-07-10T12:38:01;101723.69;;;21.86;42.96
16120;BME280;12670;53.502;10.252;2022-07-10T12:41:09;101736.84;;;22.03;44.94
16120;BME280;12670;53.502;10.252;2022-07-10T12:44:11;101732.88;;;21.96;43.83
16120;BME280;12670;53.502;10.252;2022-07-10T12:47:17;101738.81;;;21.65;43.53
16120;BME280;12670;53.502;10.252;2022-07-10T12:50:23;101741.41;;;21.53;44.37
16120;BME280;12670;53.502;10.252;2022-07-10T12:53:26;101736.88;;;21.54;45.46
16120;BME280;12670;53.502;10.252;2022-07-10T12:56:33;101739.78;;;21.25;44.94
16120;BME280;12670;53.502;10.252;2022-07-10T12:59:36;101740.09;;;21.21;46.28
16120;BME280;12670;53.502;10.252;2022-07-10T13:02:39;101742.47;;;20.87;46.40
16120;BME280;12670;53.502;10.252;2022-07-10T13:05:43;101746.66;;;20.66;46.83
16120;BME280;12670;53.502;10.252;2022-07-10T13:08:46;101746.03;;;20.88;48.36
16120;BME280;12670;53.502;10.252;2022-07-10T13:11:50;101748.28;;;20.81;47.88
16120;BME280;12670;53.502;10.252;2022-07-10T13:14:53;101758.94;;;20.43;47.68
16120;BME280;12670;53.502;10.252;2022-07-10T13:17:56;101747.34;;;20.82;48.55
16120;BME280;12670;53.502;10.252;2022-07-10T13:20:59;101749.19;;;21.07;48.34
16120;BME280;12670;53.502;10.252;2022-07-10T13:24:03;101749.59;;;21.01;48.63
16120;BME280;12670;53.502;10.252;2022-07-10T13:27:07;101752.03;;;20.66;48.53
16120;BME280;12670;53.502;10.252;2022-07-10T13:30:10;101746.34;;;20.70;49.39
16120;BME280;12670;53.502;10.252;2022-07-10T13:33:13;101769.53;;;20.73;48.80
16120;BME280;12670;53.502;10.252;2022-07-10T13:36:17;101754.78;;;20.91;47.95
16120;BME280;12670;53.502;10.252;2022-07-10T13:39:19;101757.38;;;21.18;47.06
16120;BME280;12670;53.502;10.252;2022-07-10T13:42:23;101766.22;;;20.82;47.57
16120;BME280;12670;53.502;10.252;2022-07-10T13:45:26;101764.09;;;20.33;48.60
16120;BME280;12670;53.502;10.252;2022-07-10T13:48:33;101760.28;;;20.50;49.25
16120;BME280;12670;53.502;10.252;2022-07-10T13:51:37;101749.94;;;20.96;47.88
16120;BME280;12670;53.502;10.252;2022-07-10T13:54:39;101751.75;;;21.21;49.68
16120;BME280;12670;53.502;10.252;2022-07-10T13:57:44;101751.78;;;21.60;48.04
16120;BME280;12670;53.502;10.252;2022-07-10T14:00:46;101754.38;;;21.48;46.43
16120;BME280;12670;53.502;10.252;2022-07-10T14:03:49;101756.97;;;21.99;47.32
16120;BME280;12670;53.502;10.252;2022-07-10T14:06:54;101763.72;;;22.66;45.62
16120;BME280;12670;53.502;10.252;2022-07-10T14:09:56;101759.59;;;22.84;45.18
16120;BME280;12670;53.502;10.252;2022-07-10T14:13:01;101756.50;;;22.18;44.09
16120;BME280;12670;53.502;10.252;2022-07-10T14:16:11;101759.03;;;21.46;45.46
16120;BME280;12670;53.502;10.252;2022-07-10T14:19:14;101760.94;;;21.70;47.06
16120;BME280;12670;53.502;10.252;2022-07-10T14:22:17;101760.94;;;21.19;46.65
16120;BME280;12670;53.502;10.252;2022-07-10T14:25:24;101760.28;;;21.02;47.29
16120;BME280;12670;53.502;10.252;2022-07-10T14:28:29;101759.97;;;20.28;49.58
16120;BME280;12670;53.502;10.252;2022-07-10T14:31:33;101769.53;;;20.19;50.75
16120;BME280;12670;53.502;10.252;2022-07-10T14:34:36;101759.31;;;20.24;50.15
16120;BME280;12670;53.502;10.252;2022-07-10T14:37:38;101767.97;;;20.29;50.59
16120;BME280;12670;53.502;10.252;2022-07-10T14:40:41;101765.75;;;20.21;51.29
16120;BME280;12670;53.502;10.252;2022-07-10T14:43:45;101757.63;;;20.63;49.43
16120;BME280;12670;53.502;10.252;2022-07-10T14:46:48;101765.06;;;20.32;49.79
16120;BME280;12670;53.502;10.252;2022-07-10T14:49:51;101764.78;;;20.22;48.60
16120;BME280;12670;53.502;10.252;2022-07-10T14:52:53;101759.28;;;20.11;50.67
16120;BME280;12670;53.502;10.252;2022-07-10T14:55:56;101764.78;;;19.95;52.02
16120;BME280;12670;53.502;10.252;2022-07-10T14:59:00;101762.19;;;20.21;51.62
16120;BME280;12670;53.502;10.252;2022-07-10T15:02:15;101746.84;;;20.36;50.69
16120;BME280;12670;53.502;10.252;2022-07-10T15:05:18;101758.59;;;20.08;52.20
16120;BME280;12670;53.502;10.252;2022-07-10T15:08:22;101756.56;;;19.70;52.25
16120;BME280;12670;53.502;10.252;2022-07-10T15:11:24;101758.53;;;19.81;51.78
16120;BME280;12670;53.502;10.252;2022-07-10T15:14:28;101763.41;;;20.03;50.82
16120;BME280;12670;53.502;10.252;2022-07-10T15:17:31;101756.69;;;20.22;52.51
16120;BME280;12670;53.502;10.252;2022-07-10T15:20:34;101755.94;;;20.20;51.96
16120;BME280;12670;53.502;10.252;2022-07-10T15:23:38;101751.44;;;20.21;51.99
16120;BME280;12670;53.502;10.252;2022-07-10T15:26:41;101756.25;;;20.16;51.60
16120;BME280;12670;53.502;10.252;2022-07-10T15:29:45;101754.28;;;20.05;50.88
16120;BME280;12670;53.502;10.252;2022-07-10T15:32:47;101757.78;;;19.79;50.87
16120;BME280;12670;53.502;10.252;2022-07-10T15:35:50;101755.00;;;19.80;52.09
16120;BME280;12670;53.502;10.252;2022-07-10T15:38:53;101748.63;;;19.81;53.71
16120;BME280;12670;53.502;10.252;2022-07-10T15:41:56;101749.09;;;20.02;54.49
16120;BME280;12670;53.502;10.252;2022-07-10T15:45:00;101742.09;;;19.85;52.31
16120;BME280;12670;53.502;10.252;2022-07-10T15:48:03;101745.75;;;19.84;53.44
16120;BME280;12670;53.502;10.252;2022-07-10T15:51:05;101746.22;;;19.91;53.80